Time;durP1;ratioP1;P1;durP2;ratioP2;P2;SDS_P1;SDS_P2;PMS_P1;PMS_P2;Temp;Humidity;BMP_temperature;BMP_pressure;BME280_temperature;BME280_humidity;BME280_pressure;Samples;Min_cycle;Max_cycle;Signal;HPM_P1;HPM_P2
2022/10/16 00:00:23;;;;;;;3.30;3.00;;;;;;;;;;4964905;28;20072;-67
2022/10/16 00:02:48;;;;;;;7.50;3.85;;;;;;;;;;4965246;28;20047;-69
2022/10/16 00:05:14;;;;;;;6.60;3.28;;;;;;;;;;4963929;28;20054;-69
2022/10/16 00:07:39;;;;;;;6.50;3.33;;;;;;;;;;4965098;28;20515;-67
2022/10/16 00:10:05;;;;;;;10.55;3.83;;;;;;;;;;4964335;28;20582;-69
2022/10/16 00:12:30;;;;;;;7.55;3.95;;;;;;;;;;4964843;28;20054;-69
2022/10/16 00:14:56;;;;;;;5.68;3.20;;;;;;;;;;4965224;28;20078;-67
2022/10/16 00:17:21;;;;;;;4.03;3.22;;;;;;;;;;4963728;28;20050;-67
2022/10/16 00:19:47;;;;;;;5.78;3.40;;;;;;;;;;4964913;28;20062;-69
2022/10/16 00:22:12;;;;;;;7.03;3.50;;;;;;;;;;4963957;28;20054;-68
2022/10/16 00:24:37;;;;;;;3.60;3.28;;;;;;;;;;4964736;28;20499;-67
2022/10/16 00:27:03;;;;;;;9.13;3.67;;;;;;;;;;4964627;28;20051;-68
2022/10/16 00:29:28;;;;;;;8.52;3.13;;;;;;;;;;4963976;28;20081;-67
2022/10/16 00:31:54;;;;;;;6.43;3.10;;;;;;;;;;4964026;28;20943;-71
2022/10/16 00:34:19;;;;;;;4.28;3.20;;;;;;;;;;4964442;28;20141;-67
2022/10/16 00:36:44;;;;;;;4.03;3.00;;;;;;;;;;4964581;28;20189;-68
2022/10/16 00:39:10;;;;;;;18.35;3.42;;;;;;;;;;4963544;28;20051;-68
2022/10/16 00:41:35;;;;;;;7.07;2.78;;;;;;;;;;4962979;28;20054;-67
2022/10/16 00:44:03;;;;;;;4.82;3.08;;;;;;;;;;4963979;28;20050;-67
2022/10/16 00:46:35;;;;;;;5.97;3.33;;;;;;;;;;4964122;28;20050;-68
2022/10/16 00:49:16;;;;;;;5.28;3.90;;;;;;;;;;4964621;28;20047;-68
2022/10/16 00:51:44;;;;;;;6.30;3.70;;;;;;;;;;4964107;28;20054;-68
2022/10/16 00:54:14;;;;;;;13.35;3.60;;;;;;;;;;4963595;28;20034;-68
2022/10/16 00:56:40;;;;;;;6.25;3.33;;;;;;;;;;4964168;28;20046;-68
2022/10/16 00:59:14;;;;;;;14.82;3.47;;;;;;;;;;4964185;28;20463;-69
2022/10/16 01:01:40;;;;;;;3.55;3.20;;;;;;;;;;4963009;28;20053;-70
2022/10/16 01:04:05;;;;;;;3.63;2.95;;;;;;;;;;4963147;28;20047;-70
2022/10/16 01:06:36;;;;;;;6.35;3.22;;;;;;;;;;4964069;28;20074;-70
2022/10/16 01:09:16;;;;;;;4.97;2.80;;;;;;;;;;4964263;28;20411;-70
2022/10/16 01:11:50;;;;;;;5.05;2.78;;;;;;;;;;4962340;28;20050;-71
2022/10/16 01:14:44;;;;;;;6.97;3.13;;;;;;;;;;4960924;28;20042;-71
2022/10/16 01:17:18;;;;;;;4.80;2.90;;;;;;;;;;4955770;28;20096;-68
2022/10/16 01:20:06;;;;;;;3.75;3.15;;;;;;;;;;4960893;28;20459;-68
2022/10/16 01:23:06;;;;;;;7.28;2.83;;;;;;;;;;4960067;28;20133;-70
2022/10/16 01:26:00;;;;;;;4.00;2.80;;;;;;;;;;4943635;28;20500;-68
2022/10/16 01:28:36;;;;;;;3.05;2.70;;;;;;;;;;4961280;28;20053;-69
2022/10/16 01:31:03;;;;;;;4.13;3.22;;;;;;;;;;4959660;28;20054;-69
2022/10/16 01:33:45;;;;;;;4.70;3.65;;;;;;;;;;4961642;28;20051;-70
2022/10/16 01:36:18;;;;;;;3.70;3.30;;;;;;;;;;4963115;28;20043;-68
2022/10/16 01:38:48;;;;;;;8.68;3.80;;;;;;;;;;4963868;28;20416;-71
2022/10/16 01:41:37;;;;;;;7.80;3.33;;;;;;;;;;4963515;28;20154;-71
2022/10/16 01:44:24;;;;;;;4.43;3.60;;;;;;;;;;4961919;28;20054;-71
2022/10/16 01:46:52;;;;;;;6.43;3.22;;;;;;;;;;4963419;28;20051;-71
2022/10/16 01:49:20;;;;;;;6.82;3.42;;;;;;;;;;4961339;28;20054;-71
2022/10/16 01:51:49;;;;;;;5.82;3.10;;;;;;;;;;4963218;28;20068;-69
2022/10/16 01:54:17;;;;;;;6.00;3.58;;;;;;;;;;4961556;28;20054;-70
2022/10/16 01:56:43;;;;;;;5.43;3.53;;;;;;;;;;4963157;28;20046;-70
2022/10/16 01:59:19;;;;;;;9.40;2.97;;;;;;;;;;4962976;28;20084;-68
2022/10/16 02:01:49;;;;;;;5.60;3.47;;;;;;;;;;4962888;28;20047;-67
2022/10/16 02:04:21;;;;;;;9.75;3.80;;;;;;;;;;4962171;28;20384;-69
2022/10/16 02:06:46;;;;;;;10.43;3.97;;;;;;;;;;4961991;28;20055;-69
2022/10/16 02:09:12;;;;;;;5.60;3.80;;;;;;;;;;4962707;28;20045;-69
2022/10/16 02:11:37;;;;;;;18.05;4.03;;;;;;;;;;4962721;28;20912;-70
2022/10/16 02:14:06;;;;;;;16.90;3.30;;;;;;;;;;4961393;28;20114;-70
2022/10/16 02:16:36;;;;;;;4.80;2.70;;;;;;;;;;4961722;28;20051;-68
2022/10/16 02:19:01;;;;;;;6.90;3.40;;;;;;;;;;4962699;28;20101;-70
2022/10/16 02:21:33;;;;;;;6.07;3.28;;;;;;;;;;4961148;28;20404;-70
2022/10/16 02:24:08;;;;;;;5.50;3.65;;;;;;;;;;4962047;28;20117;-70
2022/10/16 02:26:39;;;;;;;6.70;3.92;;;;;;;;;;4962860;28;20055;-70
2022/10/16 02:29:10;;;;;;;7.40;3.85;;;;;;;;;;4952894;28;20125;-69
2022/10/16 02:31:40;;;;;;;6.30;4.40;;;;;;;;;;4962434;28;20562;-69
2022/10/16 02:34:07;;;;;;;6.70;3.90;;;;;;;;;;4961764;28;20047;-69
2022/10/16 02:36:35;;;;;;;8.05;3.95;;;;;;;;;;4962643;28;20051;-69
2022/10/16 02:39:03;;;;;;;4.50;3.55;;;;;;;;;;4960307;28;20070;-69
2022/10/16 02:41:30;;;;;;;4.93;3.80;;;;;;;;;;4960644;28;20050;-69
2022/10/16 02:43:55;;;;;;;12.35;3.70;;;;;;;;;;4961402;28;20054;-69
2022/10/16 02:46:21;;;;;;;6.28;4.07;;;;;;;;;;4962167;28;20408;-69
2022/10/16 02:48:47;;;;;;;5.43;4.30;;;;;;;;;;4962033;28;20412;-69
2022/10/16 02:51:12;;;;;;;8.23;5.30;;;;;;;;;;4960927;28;20046;-69
2022/10/16 02:53:38;;;;;;;9.00;4.80;;;;;;;;;;4961764;28;20046;-69
2022/10/16 02:56:03;;;;;;;4.82;4.05;;;;;;;;;;4961824;28;20046;-68
2022/10/16 02:58:29;;;;;;;6.10;3.80;;;;;;;;;;4961838;28;20549;-68
2022/10/16 03:00:55;;;;;;;11.05;4.13;;;;;;;;;;4961293;28;20500;-69
2022/10/16 03:03:20;;;;;;;6.25;4.10;;;;;;;;;;4960725;28;20448;-69
2022/10/16 03:05:46;;;;;;;5.85;4.22;;;;;;;;;;4962212;28;20456;-68
2022/10/16 03:08:12;;;;;;;12.73;9.98;;;;;;;;;;4961564;28;20046;-68
2022/10/16 03:10:37;;;;;;;7.43;5.18;;;;;;;;;;4961766;28;20129;-68
2022/10/16 03:13:03;;;;;;;8.45;5.38;;;;;;;;;;4960798;28;20137;-68
2022/10/16 03:15:28;;;;;;;14.68;10.40;;;;;;;;;;4961836;28;20066;-69
2022/10/16 03:17:54;;;;;;;12.40;9.02;;;;;;;;;;4961255;28;20047;-71
2022/10/16 03:20:20;;;;;;;9.23;4.90;;;;;;;;;;4961689;28;21098;-69
2022/10/16 03:22:45;;;;;;;7.30;4.78;;;;;;;;;;4960798;28;20093;-69
2022/10/16 03:25:11;;;;;;;4.72;4.20;;;;;;;;;;4961228;28;20055;-69
2022/10/16 03:27:36;;;;;;;5.95;5.00;;;;;;;;;;4962075;28;20055;-69
2022/10/16 03:30:03;;;;;;;4.95;4.50;;;;;;;;;;4959170;28;20066;-68
2022/10/16 03:32:28;;;;;;;9.95;5.68;;;;;;;;;;4960748;28;20118;-69
2022/10/16 03:34:54;;;;;;;5.20;4.70;;;;;;;;;;4960707;28;20058;-68
2022/10/16 03:37:19;;;;;;;13.32;5.22;;;;;;;;;;4961985;28;20039;-69
2022/10/16 03:39:45;;;;;;;6.18;3.65;;;;;;;;;;4958666;28;20496;-69
2022/10/16 03:42:12;;;;;;;20.90;4.55;;;;;;;;;;4960940;28;20054;-69
2022/10/16 03:44:37;;;;;;;13.05;5.28;;;;;;;;;;4960248;28;20171;-69
2022/10/16 03:47:03;;;;;;;15.55;3.83;;;;;;;;;;4961571;28;20107;-69
2022/10/16 03:49:28;;;;;;;25.23;4.53;;;;;;;;;;4961475;28;20141;-69
2022/10/16 03:51:54;;;;;;;8.73;3.90;;;;;;;;;;4960905;28;20039;-72
2022/10/16 03:54:19;;;;;;;6.68;3.00;;;;;;;;;;4960354;28;20056;-69
2022/10/16 03:56:45;;;;;;;3.70;2.92;;;;;;;;;;4961444;28;20423;-69
2022/10/16 03:59:10;;;;;;;7.07;3.72;;;;;;;;;;4961642;28;20070;-69
2022/10/16 04:01:36;;;;;;;10.32;2.80;;;;;;;;;;4961150;28;20050;-69
2022/10/16 04:04:01;;;;;;;4.20;2.72;;;;;;;;;;4961044;28;20077;-70
2022/10/16 04:06:26;;;;;;;6.07;2.90;;;;;;;;;;4960267;28;20051;-69
2022/10/16 04:08:52;;;;;;;4.15;3.25;;;;;;;;;;4961552;28;20061;-69
2022/10/16 04:11:17;;;;;;;3.10;2.50;;;;;;;;;;4961131;28;20043;-70
2022/10/16 04:13:43;;;;;;;6.22;2.75;;;;;;;;;;4961675;28;20109;-69
2022/10/16 04:16:09;;;;;;;6.45;2.40;;;;;;;;;;4960090;28;20046;-69
2022/10/16 04:18:35;;;;;;;2.70;2.50;;;;;;;;;;4960891;28;20477;-69
2022/10/16 04:21:04;;;;;;;2.53;2.28;;;;;;;;;;4961434;28;20097;-69
2022/10/16 04:23:30;;;;;;;2.78;2.58;;;;;;;;;;4961061;28;20074;-70
2022/10/16 04:25:56;;;;;;;4.90;2.53;;;;;;;;;;4961120;28;20679;-69
2022/10/16 04:28:21;;;;;;;3.65;2.92;;;;;;;;;;4960183;28;20051;-69
2022/10/16 04:30:47;;;;;;;6.78;3.08;;;;;;;;;;4961402;28;20050;-69
2022/10/16 04:33:12;;;;;;;4.15;3.08;;;;;;;;;;4960952;28;20154;-68
2022/10/16 04:35:38;;;;;;;12.88;3.13;;;;;;;;;;4957598;28;20045;-69
2022/10/16 04:38:04;;;;;;;3.72;2.50;;;;;;;;;;4961944;28;20039;-68
2022/10/16 04:40:32;;;;;;;6.72;2.85;;;;;;;;;;4963181;28;21064;-68
2022/10/16 04:42:58;;;;;;;4.28;2.78;;;;;;;;;;4963869;28;20077;-68
2022/10/16 04:45:24;;;;;;;4.97;2.78;;;;;;;;;;4962316;28;20057;-68
2022/10/16 04:47:50;;;;;;;3.55;2.90;;;;;;;;;;4964201;28;20047;-68
2022/10/16 04:50:15;;;;;;;2.85;2.55;;;;;;;;;;4962212;28;20082;-68
2022/10/16 04:53:00;;;;;;;11.55;3.25;;;;;;;;;;4963729;28;20038;-69
2022/10/16 04:55:25;;;;;;;3.60;2.45;;;;;;;;;;4963598;28;20052;-68
2022/10/16 04:57:51;;;;;;;6.78;2.40;;;;;;;;;;4963381;28;20440;-71
2022/10/16 05:00:16;;;;;;;7.75;2.45;;;;;;;;;;4962248;28;20078;-71
2022/10/16 05:02:42;;;;;;;3.85;2.80;;;;;;;;;;4963399;28;20047;-71
2022/10/16 05:05:07;;;;;;;5.10;2.75;;;;;;;;;;4963890;28;20415;-71
2022/10/16 05:07:33;;;;;;;5.85;2.88;;;;;;;;;;4963623;28;20344;-71
2022/10/16 05:09:58;;;;;;;7.25;2.70;;;;;;;;;;4963417;28;20042;-71
2022/10/16 05:12:24;;;;;;;7.65;2.88;;;;;;;;;;4961775;28;20050;-70
2022/10/16 05:14:49;;;;;;;10.30;3.78;;;;;;;;;;4963795;28;20046;-70
2022/10/16 05:17:15;;;;;;;5.60;3.00;;;;;;;;;;4964068;28;20050;-70
2022/10/16 05:19:40;;;;;;;3.13;2.78;;;;;;;;;;4963803;28;20035;-70
2022/10/16 05:22:05;;;;;;;2.92;2.50;;;;;;;;;;4963107;28;20050;-70
2022/10/16 05:24:31;;;;;;;8.18;3.22;;;;;;;;;;4961799;28;20076;-70
2022/10/16 05:26:56;;;;;;;12.68;3.33;;;;;;;;;;4962693;28;20062;-70
2022/10/16 05:29:22;;;;;;;4.55;2.80;;;;;;;;;;4962841;28;20070;-71
2022/10/16 05:31:50;;;;;;;4.13;2.95;;;;;;;;;;4962673;28;20070;-70
2022/10/16 05:34:16;;;;;;;9.10;2.88;;;;;;;;;;4961807;28;20050;-70
2022/10/16 05:36:41;;;;;;;7.97;2.92;;;;;;;;;;4963971;28;20057;-70
2022/10/16 05:39:07;;;;;;;5.20;3.10;;;;;;;;;;4963316;28;20069;-70
2022/10/16 05:41:32;;;;;;;3.08;2.78;;;;;;;;;;4963361;28;20050;-69
2022/10/16 05:43:57;;;;;;;5.70;2.67;;;;;;;;;;4962702;28;20048;-70
2022/10/16 05:46:23;;;;;;;4.22;3.10;;;;;;;;;;4962028;28;20051;-69
2022/10/16 05:48:51;;;;;;;4.75;3.42;;;;;;;;;;4961882;28;20050;-70
2022/10/16 05:51:17;;;;;;;4.85;3.20;;;;;;;;;;4963221;28;20061;-70
2022/10/16 05:53:43;;;;;;;6.72;3.53;;;;;;;;;;4963289;28;20047;-70
2022/10/16 05:56:10;;;;;;;7.57;2.85;;;;;;;;;;4961693;28;20046;-70
2022/10/16 05:58:37;;;;;;;4.45;2.60;;;;;;;;;;4963147;28;20039;-70
2022/10/16 06:01:17;;;;;;;3.65;2.70;;;;;;;;;;4961789;28;20058;-70
2022/10/16 06:03:43;;;;;;;3.88;3.03;;;;;;;;;;4962367;28;20194;-70
2022/10/16 06:06:13;;;;;;;3.92;2.58;;;;;;;;;;4962011;28;20142;-70
2022/10/16 06:08:39;;;;;;;3.97;3.03;;;;;;;;;;4962874;28;20137;-70
2022/10/16 06:11:07;;;;;;;6.50;3.03;;;;;;;;;;4962654;28;20495;-70
2022/10/16 06:13:32;;;;;;;8.18;3.00;;;;;;;;;;4951964;28;20917;-70
2022/10/16 06:15:59;;;;;;;7.85;2.85;;;;;;;;;;4959982;28;20057;-70
2022/10/16 06:18:26;;;;;;;6.28;2.60;;;;;;;;;;4958480;28;20564;-71
2022/10/16 06:20:52;;;;;;;3.25;2.67;;;;;;;;;;4959954;28;20046;-70
2022/10/16 06:23:18;;;;;;;3.15;2.83;;;;;;;;;;4958906;28;20046;-70
2022/10/16 06:25:44;;;;;;;8.38;2.78;;;;;;;;;;4959230;28;20058;-70
2022/10/16 06:28:09;;;;;;;3.53;2.72;;;;;;;;;;4956954;28;20035;-71
2022/10/16 06:30:34;;;;;;;6.78;2.75;;;;;;;;;;4960235;28;20062;-71
2022/10/16 06:33:03;;;;;;;4.35;2.65;;;;;;;;;;4960887;28;20042;-70
2022/10/16 06:35:29;;;;;;;2.83;2.60;;;;;;;;;;4960123;28;20161;-71
2022/10/16 06:37:54;;;;;;;9.52;2.90;;;;;;;;;;4960603;28;21102;-70
2022/10/16 06:40:20;;;;;;;7.88;2.42;;;;;;;;;;4957936;28;20062;-71
2022/10/16 06:42:45;;;;;;;2.88;2.45;;;;;;;;;;4960483;28;20263;-70
2022/10/16 06:45:12;;;;;;;2.67;2.33;;;;;;;;;;4959116;28;20061;-71
2022/10/16 06:47:38;;;;;;;8.55;2.72;;;;;;;;;;4960716;28;20078;-70
2022/10/16 06:50:04;;;;;;;5.53;2.63;;;;;;;;;;4959413;28;20089;-71
2022/10/16 06:52:29;;;;;;;3.15;2.67;;;;;;;;;;4958943;28;20046;-70
2022/10/16 06:54:55;;;;;;;7.60;2.42;;;;;;;;;;4960513;28;20109;-71
2022/10/16 06:57:20;;;;;;;6.05;2.70;;;;;;;;;;4959761;28;20047;-69
2022/10/16 06:59:46;;;;;;;6.70;2.88;;;;;;;;;;4959047;28;20109;-71
2022/10/16 07:02:11;;;;;;;4.07;2.50;;;;;;;;;;4957434;28;20055;-70
2022/10/16 07:04:37;;;;;;;3.95;2.60;;;;;;;;;;4959389;28;20061;-70
2022/10/16 07:07:02;;;;;;;6.35;2.88;;;;;;;;;;4959172;28;20625;-71
2022/10/16 07:09:28;;;;;;;4.22;2.70;;;;;;;;;;4959071;28;20116;-71
2022/10/16 07:11:53;;;;;;;3.55;2.70;;;;;;;;;;4958981;28;20054;-69
2022/10/16 07:14:20;;;;;;;10.77;3.15;;;;;;;;;;4957492;28;20137;-69
2022/10/16 07:16:47;;;;;;;3.20;2.90;;;;;;;;;;4960512;28;20113;-70
2022/10/16 07:19:14;;;;;;;3.05;2.65;;;;;;;;;;4957693;28;20062;-71
2022/10/16 07:21:41;;;;;;;5.10;2.45;;;;;;;;;;4957720;28;20062;-71
2022/10/16 07:24:11;;;;;;;4.38;2.28;;;;;;;;;;4956202;28;20615;-71
2022/10/16 07:26:38;;;;;;;4.30;2.00;;;;;;;;;;4960291;28;20054;-71
2022/10/16 07:29:06;;;;;;;5.68;2.40;;;;;;;;;;4959865;28;20574;-68
2022/10/16 07:31:32;;;;;;;7.60;2.10;;;;;;;;;;4958880;28;20043;-67
2022/10/16 07:33:58;;;;;;;2.33;1.98;;;;;;;;;;4959208;28;20047;-72
2022/10/16 07:36:24;;;;;;;6.20;2.80;;;;;;;;;;4958619;28;20411;-70
2022/10/16 07:38:49;;;;;;;2.60;2.40;;;;;;;;;;4959006;28;20043;-68
2022/10/16 07:41:17;;;;;;;3.40;2.22;;;;;;;;;;4958993;28;20542;-68
2022/10/16 07:43:47;;;;;;;3.47;2.45;;;;;;;;;;4958811;28;20046;-68
2022/10/16 07:46:13;;;;;;;2.42;1.83;;;;;;;;;;4956521;28;20054;-68
2022/10/16 07:48:38;;;;;;;2.22;1.73;;;;;;;;;;4959069;28;20051;-68
2022/10/16 07:51:06;;;;;;;4.72;2.00;;;;;;;;;;4949944;28;20077;-70
2022/10/16 07:53:31;;;;;;;3.67;2.22;;;;;;;;;;4959831;28;20507;-68
2022/10/16 07:56:01;;;;;;;3.92;1.85;;;;;;;;;;4958882;28;20045;-68
2022/10/16 07:58:28;;;;;;;3.40;1.70;;;;;;;;;;4959118;28;20051;-69
2022/10/16 08:00:53;;;;;;;2.00;1.90;;;;;;;;;;4960557;28;20537;-69
2022/10/16 08:03:19;;;;;;;4.22;2.00;;;;;;;;;;4959974;28;20058;-69
2022/10/16 08:05:44;;;;;;;3.90;2.10;;;;;;;;;;4960913;28;20097;-68
2022/10/16 08:08:14;;;;;;;1.95;1.73;;;;;;;;;;4959496;28;20921;-68
2022/10/16 08:10:40;;;;;;;2.50;1.80;;;;;;;;;;4961169;28;20058;-68
2022/10/16 08:13:05;;;;;;;4.07;2.20;;;;;;;;;;4964535;28;20034;-67
2022/10/16 08:15:31;;;;;;;3.47;1.52;;;;;;;;;;4964959;28;20035;-70
2022/10/16 08:18:04;;;;;;;5.60;2.70;;;;;;;;;;4961317;28;20083;-67
2022/10/16 08:20:32;;;;;;;3.50;2.10;;;;;;;;;;4960126;28;20065;-67
2022/10/16 08:22:59;;;;;;;2.55;2.22;;;;;;;;;;4964292;28;20054;-67
2022/10/16 08:25:25;;;;;;;5.82;2.40;;;;;;;;;;4963757;28;20405;-70
2022/10/16 08:27:50;;;;;;;6.85;2.33;;;;;;;;;;4964726;28;20542;-70
2022/10/16 08:30:18;;;;;;;2.47;2.00;;;;;;;;;;4962959;28;20104;-70
2022/10/16 08:32:44;;;;;;;4.18;1.90;;;;;;;;;;4964893;28;20153;-70
2022/10/16 08:35:11;;;;;;;6.57;1.80;;;;;;;;;;4964875;28;20138;-70
2022/10/16 08:37:37;;;;;;;2.28;1.40;;;;;;;;;;4963294;28;20089;-69
2022/10/16 08:40:04;;;;;;;4.05;1.67;;;;;;;;;;4964096;28;20043;-70
2022/10/16 08:42:52;;;;;;;1.70;1.58;;;;;;;;;;4963444;28;20046;-70
2022/10/16 08:45:42;;;;;;;1.90;1.60;;;;;;;;;;4964230;28;20578;-70
2022/10/16 08:48:47;;;;;;;3.15;1.60;;;;;;;;;;4961389;28;20051;-70
2022/10/16 08:51:31;;;;;;;7.05;1.65;;;;;;;;;;4962428;28;20058;-67
2022/10/16 08:54:01;;;;;;;3.30;2.08;;;;;;;;;;4960169;28;20051;-69
2022/10/16 08:56:27;;;;;;;5.13;1.58;;;;;;;;;;4962994;28;20057;-68
2022/10/16 08:58:53;;;;;;;1.50;1.40;;;;;;;;;;4962855;28;20043;-70
2022/10/16 09:01:39;;;;;;;6.07;1.52;;;;;;;;;;4963796;28;20073;-69
2022/10/16 09:04:42;;;;;;;2.08;1.48;;;;;;;;;;4962569;28;20047;-69
2022/10/16 09:07:39;;;;;;;1.50;1.27;;;;;;;;;;4963648;28;20938;-70
2022/10/16 09:10:16;;;;;;;3.72;1.73;;;;;;;;;;4934137;28;20772;-69
2022/10/16 09:13:19;;;;;;;1.52;1.40;;;;;;;;;;4960113;28;20093;-69
2022/10/16 09:15:59;;;;;;;5.75;1.77;;;;;;;;;;4975252;28;20081;-69
2022/10/16 09:18:44;;;;;;;2.47;1.40;;;;;;;;;;4953457;28;20858;-70
2022/10/16 09:21:18;;;;;;;2.13;1.35;;;;;;;;;;4960777;28;20456;-69
2022/10/16 09:23:43;;;;;;;5.78;1.33;;;;;;;;;;4960211;28;20061;-69
2022/10/16 09:26:14;;;;;;;2.47;1.33;;;;;;;;;;4958658;28;20051;-68
2022/10/16 09:28:40;;;;;;;2.58;1.55;;;;;;;;;;4947051;28;20043;-68
2022/10/16 09:31:05;;;;;;;6.78;1.50;;;;;;;;;;4960460;28;20086;-69
2022/10/16 09:33:37;;;;;;;6.10;1.40;;;;;;;;;;4960927;28;20042;-69
2022/10/16 09:36:05;;;;;;;2.05;1.70;;;;;;;;;;4959543;28;20564;-69
2022/10/16 09:38:33;;;;;;;1.45;1.30;;;;;;;;;;4961085;28;20085;-68
2022/10/16 09:41:13;;;;;;;2.67;1.35;;;;;;;;;;4960644;28;20070;-69
2022/10/16 09:43:52;;;;;;;1.67;1.27;;;;;;;;;;4960390;28;20403;-68
2022/10/16 09:46:35;;;;;;;4.55;1.40;;;;;;;;;;4958528;28;20405;-69
2022/10/16 09:49:03;;;;;;;2.03;1.52;;;;;;;;;;4959713;28;20062;-69
2022/10/16 09:51:35;;;;;;;3.55;1.40;;;;;;;;;;4960789;28;20051;-69
2022/10/16 09:54:08;;;;;;;2.75;1.48;;;;;;;;;;4957113;28;20046;-68
2022/10/16 09:56:36;;;;;;;2.92;1.50;;;;;;;;;;4957051;28;20046;-68
2022/10/16 09:59:16;;;;;;;4.97;1.73;;;;;;;;;;4957219;28;20042;-68
2022/10/16 10:01:53;;;;;;;5.15;1.75;;;;;;;;;;4962775;28;20449;-68
2022/10/16 10:04:20;;;;;;;1.60;1.50;;;;;;;;;;4961208;28;20046;-68
2022/10/16 10:06:49;;;;;;;1.73;1.40;;;;;;;;;;4961602;28;20047;-68
2022/10/16 10:09:35;;;;;;;3.67;1.60;;;;;;;;;;4961465;28;20053;-68
2022/10/16 10:12:02;;;;;;;2.97;1.30;;;;;;;;;;4962253;28;20047;-68
2022/10/16 10:14:47;;;;;;;1.88;1.52;;;;;;;;;;4962597;28;20058;-68
2022/10/16 10:17:21;;;;;;;1.60;1.50;;;;;;;;;;4962141;28;20455;-68
2022/10/16 10:20:00;;;;;;;1.60;1.50;;;;;;;;;;4976286;28;20057;-67
2022/10/16 10:22:41;;;;;;;3.00;1.50;;;;;;;;;;4961903;28;20511;-68
2022/10/16 10:25:12;;;;;;;1.52;1.42;;;;;;;;;;4962371;28;20051;-69
2022/10/16 10:28:15;;;;;;;3.10;1.52;;;;;;;;;;4953481;28;20085;-68
2022/10/16 10:30:50;;;;;;;2.88;1.25;;;;;;;;;;4957128;28;20093;-68
2022/10/16 10:33:20;;;;;;;1.98;1.48;;;;;;;;;;4959249;28;20076;-68
2022/10/16 10:36:14;;;;;;;2.45;1.50;;;;;;;;;;4960632;28;20426;-68
2022/10/16 10:38:56;;;;;;;2.22;1.52;;;;;;;;;;4953912;28;20089;-68
2022/10/16 10:41:24;;;;;;;1.58;1.48;;;;;;;;;;4958959;28;20051;-68
2022/10/16 10:44:24;;;;;;;1.92;1.42;;;;;;;;;;4959749;28;20061;-69
2022/10/16 10:47:05;;;;;;;1.92;1.15;;;;;;;;;;4945326;28;20155;-68
2022/10/16 10:49:58;;;;;;;2.53;1.73;;;;;;;;;;4960894;28;20113;-69
2022/10/16 10:52:24;;;;;;;3.72;1.27;;;;;;;;;;4957953;28;20054;-69
2022/10/16 10:55:02;;;;;;;4.65;1.60;;;;;;;;;;4960788;28;20113;-68
2022/10/16 10:58:02;;;;;;;6.05;1.73;;;;;;;;;;4960816;28;20090;-69
2022/10/16 11:00:37;;;;;;;4.43;1.50;;;;;;;;;;4949379;28;20054;-67
2022/10/16 11:03:39;;;;;;;3.10;1.40;;;;;;;;;;4961153;28;20109;-68
2022/10/16 11:06:09;;;;;;;1.45;1.35;;;;;;;;;;4959348;28;20161;-69
2022/10/16 11:08:47;;;;;;;1.40;1.17;;;;;;;;;;4960715;28;20085;-68
2022/10/16 11:11:25;;;;;;;3.05;1.50;;;;;;;;;;4959254;28;20069;-69
2022/10/16 11:13:59;;;;;;;3.80;1.35;;;;;;;;;;4960815;28;20491;-69
2022/10/16 11:16:50;;;;;;;1.35;1.25;;;;;;;;;;4957250;28;20073;-69
2022/10/16 11:19:33;;;;;;;2.72;1.20;;;;;;;;;;4958753;28;20381;-69
2022/10/16 11:22:01;;;;;;;4.43;1.25;;;;;;;;;;4958391;28;20082;-68
2022/10/16 11:24:49;;;;;;;2.05;1.17;;;;;;;;;;4957404;28;20050;-68
2022/10/16 11:27:19;;;;;;;2.25;1.10;;;;;;;;;;4947212;28;20105;-69
2022/10/16 11:29:55;;;;;;;3.65;1.40;;;;;;;;;;4959021;28;20141;-69
2022/10/16 11:32:27;;;;;;;1.40;1.30;;;;;;;;;;4958467;28;20054;-68
2022/10/16 11:34:59;;;;;;;1.65;1.15;;;;;;;;;;4960510;28;20047;-69
2022/10/16 11:37:31;;;;;;;5.05;1.25;;;;;;;;;;4959614;28;20062;-68
2022/10/16 11:40:02;;;;;;;2.55;1.38;;;;;;;;;;4960859;28;20431;-69
2022/10/16 11:42:42;;;;;;;1.90;1.33;;;;;;;;;;4957173;28;20054;-69
2022/10/16 11:45:34;;;;;;;1.50;1.40;;;;;;;;;;4961195;28;20166;-69
2022/10/16 11:48:24;;;;;;;1.40;1.30;;;;;;;;;;4962973;28;20062;-68
2022/10/16 11:51:26;;;;;;;1.45;1.35;;;;;;;;;;4978667;28;20047;-69
2022/10/16 11:53:55;;;;;;;4.03;1.40;;;;;;;;;;4950922;28;20055;-70
2022/10/16 11:56:21;;;;;;;1.55;1.45;;;;;;;;;;4963001;28;20054;-67
2022/10/16 11:59:05;;;;;;;2.03;1.30;;;;;;;;;;4961148;28;20062;-68
2022/10/16 12:01:40;;;;;;;4.13;1.40;;;;;;;;;;4964827;28;20047;-68
2022/10/16 12:04:20;;;;;;;1.63;1.52;;;;;;;;;;4962932;28;20108;-68
2022/10/16 12:06:57;;;;;;;1.77;1.67;;;;;;;;;;4965072;28;20058;-67
2022/10/16 12:09:28;;;;;;;3.40;1.60;;;;;;;;;;4963298;28;20141;-70
2022/10/16 12:11:54;;;;;;;3.13;1.55;;;;;;;;;;4964071;28;20051;-68
2022/10/16 12:14:36;;;;;;;3.13;1.48;;;;;;;;;;4962830;28;20562;-68
2022/10/16 12:17:21;;;;;;;2.60;1.40;;;;;;;;;;4965081;28;20053;-69
2022/10/16 12:19:57;;;;;;;1.42;1.30;;;;;;;;;;4956458;28;20503;-69
2022/10/16 12:22:25;;;;;;;1.85;1.30;;;;;;;;;;4963703;28;20047;-68
2022/10/16 12:24:51;;;;;;;2.35;1.30;;;;;;;;;;4964767;28;20220;-69
2022/10/16 12:27:28;;;;;;;2.80;1.27;;;;;;;;;;4964905;28;20508;-70
2022/10/16 12:30:00;;;;;;;3.92;1.08;;;;;;;;;;4965146;28;20065;-69
2022/10/16 12:32:30;;;;;;;;;;;;;;;;;;4963730;28;20105;-70
2022/10/16 12:34:57;;;;;;;3.00;1.27;;;;;;;;;;4964635;28;19922;-70
2022/10/16 12:37:30;;;;;;;1.40;1.17;;;;;;;;;;4964698;28;20141;-70
2022/10/16 12:39:57;;;;;;;1.83;1.15;;;;;;;;;;4965154;28;20833;-69
2022/10/16 12:42:26;;;;;;;1.35;1.10;;;;;;;;;;4963098;28;20070;-69
2022/10/16 12:44:52;;;;;;;4.22;1.30;;;;;;;;;;4964274;28;20468;-69
2022/10/16 12:47:30;;;;;;;1.40;0.90;;;;;;;;;;4964470;28;20483;-69
2022/10/16 12:49:55;;;;;;;1.50;1.00;;;;;;;;;;4964559;28;20051;-70
2022/10/16 12:52:39;;;;;;;1.52;1.27;;;;;;;;;;4963820;28;20399;-69
2022/10/16 12:55:15;;;;;;;1.67;1.40;;;;;;;;;;4963523;28;20046;-69
2022/10/16 12:57:44;;;;;;;2.20;1.17;;;;;;;;;;4962409;28;20081;-69
2022/10/16 13:00:25;;;;;;;1.20;1.10;;;;;;;;;;4963490;28;20051;-68
2022/10/16 13:03:23;;;;;;;2.28;1.05;;;;;;;;;;4963982;28;20055;-69
2022/10/16 13:06:13;;;;;;;3.08;1.10;;;;;;;;;;4947405;28;20655;-70
2022/10/16 13:09:04;;;;;;;1.17;1.10;;;;;;;;;;4961866;28;20050;-69
2022/10/16 13:11:38;;;;;;;9.43;1.40;;;;;;;;;;4964018;28;20647;-69
2022/10/16 13:14:19;;;;;;;2.60;1.13;;;;;;;;;;4963540;28;20049;-70
2022/10/16 13:17:11;;;;;;;1.23;1.13;;;;;;;;;;4963243;28;20495;-68
2022/10/16 13:19:40;;;;;;;2.17;1.08;;;;;;;;;;4964038;28;20909;-68
2022/10/16 13:22:28;;;;;;;1.95;1.10;;;;;;;;;;4963551;28;20051;-68
2022/10/16 13:25:17;;;;;;;3.28;1.20;;;;;;;;;;4963958;28;20055;-69
2022/10/16 13:27:49;;;;;;;9.45;1.20;;;;;;;;;;4962569;28;20066;-68
2022/10/16 13:30:28;;;;;;;4.38;1.40;;;;;;;;;;4963104;28;20059;-68
2022/10/16 13:32:59;;;;;;;1.45;1.35;;;;;;;;;;4963931;28;20077;-69
2022/10/16 13:35:30;;;;;;;1.30;1.20;;;;;;;;;;4963587;28;20124;-67
2022/10/16 13:38:13;;;;;;;1.70;1.20;;;;;;;;;;4963271;28;20065;-68
2022/10/16 13:41:03;;;;;;;3.03;1.25;;;;;;;;;;4960900;28;20069;-67
2022/10/16 13:43:40;;;;;;;1.92;1.25;;;;;;;;;;4963779;28;20061;-69
2022/10/16 13:46:10;;;;;;;1.80;1.30;;;;;;;;;;4962536;28;20046;-68
2022/10/16 13:48:36;;;;;;;1.73;1.10;;;;;;;;;;4962606;28;20523;-68
2022/10/16 13:51:17;;;;;;;5.97;1.10;;;;;;;;;;4963241;28;20062;-67
2022/10/16 13:53:43;;;;;;;;;;;;;;;;;;4963756;28;20990;-68
2022/10/16 13:56:19;;;;;;;4.82;1.20;;;;;;;;;;4962751;28;19925;-69
2022/10/16 13:58:45;;;;;;;1.58;1.13;;;;;;;;;;4963569;28;20054;-69
2022/10/16 14:01:18;;;;;;;1.08;1.08;;;;;;;;;;4962105;28;20109;-68
2022/10/16 14:03:45;;;;;;;4.80;1.23;;;;;;;;;;4963129;28;20493;-68
2022/10/16 14:06:17;;;;;;;2.15;1.05;;;;;;;;;;4962517;28;20455;-68
2022/10/16 14:09:03;;;;;;;3.20;1.08;;;;;;;;;;4963102;28;21021;-69
2022/10/16 14:11:33;;;;;;;2.85;2.63;;;;;;;;;;4962188;28;20488;-68
2022/10/16 14:14:00;;;;;;;2.10;1.90;;;;;;;;;;4963004;28;20137;-68
2022/10/16 14:16:28;;;;;;;3.28;2.15;;;;;;;;;;4962294;28;20055;-68
2022/10/16 14:19:06;;;;;;;1.45;1.35;;;;;;;;;;4962773;28;20047;-67
2022/10/16 14:21:33;;;;;;;3.17;1.80;;;;;;;;;;4961666;28;20931;-68
2022/10/16 14:23:58;;;;;;;1.30;1.20;;;;;;;;;;4962562;28;20546;-68
2022/10/16 14:26:27;;;;;;;1.65;1.20;;;;;;;;;;4961873;28;20070;-69
2022/10/16 14:29:18;;;;;;;1.45;1.35;;;;;;;;;;4962341;28;20086;-67
2022/10/16 14:31:55;;;;;;;4.10;1.45;;;;;;;;;;4962414;28;20054;-68
2022/10/16 14:34:32;;;;;;;2.15;1.80;;;;;;;;;;4960572;28;20503;-69
2022/10/16 14:37:02;;;;;;;1.65;1.55;;;;;;;;;;4962963;28;20551;-69
2022/10/16 14:39:28;;;;;;;2.53;1.75;;;;;;;;;;4962294;28;20039;-69
2022/10/16 14:41:56;;;;;;;2.40;2.20;;;;;;;;;;4962566;28;20057;-69
2022/10/16 14:44:28;;;;;;;15.70;12.20;;;;;;;;;;4960683;28;20054;-68
2022/10/16 14:46:54;;;;;;;7.88;4.53;;;;;;;;;;4962406;28;20506;-69
2022/10/16 14:49:21;;;;;;;3.00;2.70;;;;;;;;;;4960933;28;20510;-67
2022/10/16 14:51:47;;;;;;;3.25;1.83;;;;;;;;;;4962554;28;20085;-69
2022/10/16 14:54:16;;;;;;;1.48;1.38;;;;;;;;;;4960744;28;20046;-68
2022/10/16 14:56:48;;;;;;;3.72;1.70;;;;;;;;;;4961846;28;20579;-67
2022/10/16 14:59:18;;;;;;;;;;;;;;;;;;4962309;28;20118;-66
2022/10/16 15:01:45;;;;;;;1.48;1.38;;;;;;;;;;4962189;28;19926;-67
2022/10/16 15:04:12;;;;;;;1.48;1.38;;;;;;;;;;4961073;28;20047;-66
2022/10/16 15:06:38;;;;;;;1.70;1.35;;;;;;;;;;4961637;28;20058;-67